sensor_id;sensor_type;location;lat;lon;timestamp;P1;durP1;ratioP1;P2;durP2;ratioP2
47329;SDS011;33060;50.178;7.570;2022-10-16T00:01:18;4.53;;;3.03;;
47329;SDS011;33060;50.178;7.570;2022-10-16T00:03:47;3.35;;;2.58;;
47329;SDS011;33060;50.178;7.570;2022-10-16T00:06:15;4.93;;;2.92;;
47329;SDS011;33060;50.178;7.570;2022-10-16T00:08:43;4.18;;;2.95;;
47329;SDS011;33060;50.178;7.570;2022-10-16T00:11:15;3.28;;;2.60;;
47329;SDS011;33060;50.178;7.570;2022-10-16T00:13:47;3.70;;;2.75;;
47329;SDS011;33060;50.178;7.570;2022-10-16T00:16:15;4.68;;;2.50;;
47329;SDS011;33060;50.178;7.570;2022-10-16T00:18:43;6.90;;;2.70;;
47329;SDS011;33060;50.178;7.570;2022-10-16T00:21:13;3.40;;;2.28;;
47329;SDS011;33060;50.178;7.570;2022-10-16T00:23:45;4.53;;;2.33;;
47329;SDS011;33060;50.178;7.570;2022-10-16T00:26:13;2.90;;;2.47;;
47329;SDS011;33060;50.178;7.570;2022-10-16T00:28:41;4.90;;;2.60;;
47329;SDS011;33060;50.178;7.570;2022-10-16T00:31:09;4.15;;;2.50;;
47329;SDS011;33060;50.178;7.570;2022-10-16T00:33:37;2.53;;;2.20;;
47329;SDS011;33060;50.178;7.570;2022-10-16T00:36:06;2.63;;;2.08;;
47329;SDS011;33060;50.178;7.570;2022-10-16T00:38:34;4.13;;;2.25;;
47329;SDS011;33060;50.178;7.570;2022-10-16T00:41:01;2.38;;;2.03;;
47329;SDS011;33060;50.178;7.570;2022-10-16T00:46:07;4.75;;;2.20;;
47329;SDS011;33060;50.178;7.570;2022-10-16T00:49:06;4.38;;;1.90;;
47329;SDS011;33060;50.178;7.570;2022-10-16T00:51:42;2.78;;;1.88;;
47329;SDS011;33060;50.178;7.570;2022-10-16T00:54:18;3.13;;;2.00;;
47329;SDS011;33060;50.178;7.570;2022-10-16T00:56:48;3.00;;;2.20;;
47329;SDS011;33060;50.178;7.570;2022-10-16T00:59:16;2.63;;;2.22;;
47329;SDS011;33060;50.178;7.570;2022-10-16T01:01:46;4.00;;;2.03;;
47329;SDS011;33060;50.178;7.570;2022-10-16T01:04:12;2.88;;;2.05;;
47329;SDS011;33060;50.178;7.570;2022-10-16T01:09:39;2.78;;;2.10;;
47329;SDS011;33060;50.178;7.570;2022-10-16T01:12:23;3.22;;;2.28;;
47329;SDS011;33060;50.178;7.570;2022-10-16T01:15:25;2.33;;;2.10;;
47329;SDS011;33060;50.178;7.570;2022-10-16T01:21:06;4.90;;;3.70;;
47329;SDS011;33060;50.178;7.570;2022-10-16T01:31:44;5.60;;;4.20;;
47329;SDS011;33060;50.178;7.570;2022-10-16T01:34:18;7.72;;;4.07;;
47329;SDS011;33060;50.178;7.570;2022-10-16T01:36:56;4.20;;;3.80;;
47329;SDS011;33060;50.178;7.570;2022-10-16T01:39:29;5.07;;;3.22;;
47329;SDS011;33060;50.178;7.570;2022-10-16T01:42:13;4.13;;;3.08;;
47329;SDS011;33060;50.178;7.570;2022-10-16T01:44:45;6.00;;;3.63;;
47329;SDS011;33060;50.178;7.570;2022-10-16T01:47:13;3.65;;;3.28;;
47329;SDS011;33060;50.178;7.570;2022-10-16T01:49:42;3.85;;;2.65;;
47329;SDS011;33060;50.178;7.570;2022-10-16T01:52:11;3.95;;;2.45;;
47329;SDS011;33060;50.178;7.570;2022-10-16T01:54:42;2.30;;;2.00;;
47329;SDS011;33060;50.178;7.570;2022-10-16T01:57:12;6.22;;;1.80;;
47329;SDS011;33060;50.178;7.570;2022-10-16T01:59:42;2.10;;;1.80;;
47329;SDS011;33060;50.178;7.570;2022-10-16T02:02:12;3.28;;;2.40;;
47329;SDS011;33060;50.178;7.570;2022-10-16T02:04:42;3.13;;;2.70;;
47329;SDS011;33060;50.178;7.570;2022-10-16T02:07:15;3.80;;;3.30;;
47329;SDS011;33060;50.178;7.570;2022-10-16T02:09:42;3.95;;;3.42;;
47329;SDS011;33060;50.178;7.570;2022-10-16T02:12:14;4.07;;;3.47;;
47329;SDS011;33060;50.178;7.570;2022-10-16T02:14:49;3.50;;;3.00;;
47329;SDS011;33060;50.178;7.570;2022-10-16T02:17:16;3.83;;;2.40;;
47329;SDS011;33060;50.178;7.570;2022-10-16T02:19:43;2.80;;;1.90;;
47329;SDS011;33060;50.178;7.570;2022-10-16T02:22:22;4.22;;;2.00;;
47329;SDS011;33060;50.178;7.570;2022-10-16T02:24:56;2.13;;;1.60;;
47329;SDS011;33060;50.178;7.570;2022-10-16T02:31:03;3.40;;;2.67;;
47329;SDS011;33060;50.178;7.570;2022-10-16T02:33:14;3.97;;;2.53;;
47329;SDS011;33060;50.178;7.570;2022-10-16T02:35:42;4.70;;;3.20;;
47329;SDS011;33060;50.178;7.570;2022-10-16T02:38:12;3.13;;;2.60;;
47329;SDS011;33060;50.178;7.570;2022-10-16T02:40:41;3.03;;;2.78;;
47329;SDS011;33060;50.178;7.570;2022-10-16T02:43:08;4.43;;;3.00;;
47329;SDS011;33060;50.178;7.570;2022-10-16T02:45:36;3.55;;;3.22;;
47329;SDS011;33060;50.178;7.570;2022-10-16T02:48:02;2.15;;;1.27;;
47329;SDS011;33060;50.178;7.570;2022-10-16T02:50:29;2.15;;;1.35;;
47329;SDS011;33060;50.178;7.570;2022-10-16T02:52:56;1.38;;;0.75;;
47329;SDS011;33060;50.178;7.570;2022-10-16T02:55:22;1.42;;;0.90;;
47329;SDS011;33060;50.178;7.570;2022-10-16T02:57:49;1.88;;;0.70;;
47329;SDS011;33060;50.178;7.570;2022-10-16T03:00:16;1.05;;;0.90;;
47329;SDS011;33060;50.178;7.570;2022-10-16T03:02:43;2.10;;;1.02;;
47329;SDS011;33060;50.178;7.570;2022-10-16T03:05:10;1.48;;;1.25;;
47329;SDS011;33060;50.178;7.570;2022-10-16T03:07:37;2.60;;;1.25;;
47329;SDS011;33060;50.178;7.570;2022-10-16T03:10:04;1.45;;;0.68;;
47329;SDS011;33060;50.178;7.570;2022-10-16T03:12:31;3.22;;;0.82;;
47329;SDS011;33060;50.178;7.570;2022-10-16T03:14:58;1.73;;;1.00;;
47329;SDS011;33060;50.178;7.570;2022-10-16T03:17:24;3.42;;;1.00;;
47329;SDS011;33060;50.178;7.570;2022-10-16T03:19:52;1.98;;;0.75;;
47329;SDS011;33060;50.178;7.570;2022-10-16T03:22:18;2.10;;;1.08;;
47329;SDS011;33060;50.178;7.570;2022-10-16T03:24:45;2.22;;;1.00;;
47329;SDS011;33060;50.178;7.570;2022-10-16T03:27:12;2.00;;;1.20;;
47329;SDS011;33060;50.178;7.570;2022-10-16T03:29:38;2.42;;;1.60;;
47329;SDS011;33060;50.178;7.570;2022-10-16T03:32:05;2.17;;;1.73;;
47329;SDS011;33060;50.178;7.570;2022-10-16T03:34:32;4.13;;;1.70;;
47329;SDS011;33060;50.178;7.570;2022-10-16T03:36:58;3.17;;;1.98;;
47329;SDS011;33060;50.178;7.570;2022-10-16T03:39:25;2.50;;;1.45;;
47329;SDS011;33060;50.178;7.570;2022-10-16T03:41:51;3.60;;;1.73;;
47329;SDS011;33060;50.178;7.570;2022-10-16T03:44:18;2.40;;;1.80;;
47329;SDS011;33060;50.178;7.570;2022-10-16T03:46:44;2.80;;;2.13;;
47329;SDS011;33060;50.178;7.570;2022-10-16T03:49:11;2.40;;;2.00;;
47329;SDS011;33060;50.178;7.570;2022-10-16T03:51:38;3.03;;;2.45;;
47329;SDS011;33060;50.178;7.570;2022-10-16T03:54:04;3.33;;;2.28;;
47329;SDS011;33060;50.178;7.570;2022-10-16T03:56:31;3.30;;;2.70;;
47329;SDS011;33060;50.178;7.570;2022-10-16T03:58:58;3.00;;;2.67;;
47329;SDS011;33060;50.178;7.570;2022-10-16T04:01:24;3.63;;;2.83;;
47329;SDS011;33060;50.178;7.570;2022-10-16T04:03:51;3.97;;;2.00;;
47329;SDS011;33060;50.178;7.570;2022-10-16T04:06:18;2.75;;;1.20;;
47329;SDS011;33060;50.178;7.570;2022-10-16T04:08:44;0.95;;;0.82;;
47329;SDS011;33060;50.178;7.570;2022-10-16T04:11:11;1.98;;;0.95;;
47329;SDS011;33060;50.178;7.570;2022-10-16T04:13:38;3.40;;;1.10;;
47329;SDS011;33060;50.178;7.570;2022-10-16T04:16:04;1.05;;;0.80;;
47329;SDS011;33060;50.178;7.570;2022-10-16T04:18:31;2.42;;;0.80;;
47329;SDS011;33060;50.178;7.570;2022-10-16T04:21:06;1.00;;;0.70;;
47329;SDS011;33060;50.178;7.570;2022-10-16T04:23:33;1.80;;;1.10;;
47329;SDS011;33060;50.178;7.570;2022-10-16T04:26:00;3.13;;;1.92;;
47329;SDS011;33060;50.178;7.570;2022-10-16T04:28:27;3.33;;;2.88;;
47329;SDS011;33060;50.178;7.570;2022-10-16T04:30:54;4.00;;;3.08;;
47329;SDS011;33060;50.178;7.570;2022-10-16T04:33:21;3.53;;;3.10;;
47329;SDS011;33060;50.178;7.570;2022-10-16T04:35:47;3.03;;;2.83;;
47329;SDS011;33060;50.178;7.570;2022-10-16T04:38:14;3.80;;;2.60;;
47329;SDS011;33060;50.178;7.570;2022-10-16T04:40:41;3.38;;;3.05;;
47329;SDS011;33060;50.178;7.570;2022-10-16T04:43:09;2.38;;;2.17;;
47329;SDS011;33060;50.178;7.570;2022-10-16T04:45:35;2.72;;;2.00;;
47329;SDS011;33060;50.178;7.570;2022-10-16T04:48:02;2.70;;;2.50;;
47329;SDS011;33060;50.178;7.570;2022-10-16T04:50:29;4.15;;;3.75;;
47329;SDS011;33060;50.178;7.570;2022-10-16T04:53:04;6.20;;;4.50;;
47329;SDS011;33060;50.178;7.570;2022-10-16T04:55:31;4.80;;;4.30;;
47329;SDS011;33060;50.178;7.570;2022-10-16T04:57:58;5.90;;;5.10;;
47329;SDS011;33060;50.178;7.570;2022-10-16T05:00:25;5.18;;;4.75;;
47329;SDS011;33060;50.178;7.570;2022-10-16T05:02:52;4.20;;;3.80;;
47329;SDS011;33060;50.178;7.570;2022-10-16T05:05:19;3.20;;;2.72;;
47329;SDS011;33060;50.178;7.570;2022-10-16T05:07:46;2.90;;;2.60;;
47329;SDS011;33060;50.178;7.570;2022-10-16T05:10:13;3.65;;;3.00;;
47329;SDS011;33060;50.178;7.570;2022-10-16T05:12:40;4.45;;;3.00;;
47329;SDS011;33060;50.178;7.570;2022-10-16T05:15:07;3.65;;;2.90;;
47329;SDS011;33060;50.178;7.570;2022-10-16T05:17:34;4.25;;;3.83;;
47329;SDS011;33060;50.178;7.570;2022-10-16T05:20:03;4.78;;;4.47;;
47329;SDS011;33060;50.178;7.570;2022-10-16T05:22:30;4.22;;;3.20;;
47329;SDS011;33060;50.178;7.570;2022-10-16T05:24:56;4.30;;;1.90;;
47329;SDS011;33060;50.178;7.570;2022-10-16T05:27:23;3.22;;;1.98;;
47329;SDS011;33060;50.178;7.570;2022-10-16T05:29:50;2.90;;;2.05;;
47329;SDS011;33060;50.178;7.570;2022-10-16T05:32:17;2.65;;;2.42;;
47329;SDS011;33060;50.178;7.570;2022-10-16T05:34:44;3.50;;;3.10;;
47329;SDS011;33060;50.178;7.570;2022-10-16T05:37:11;4.32;;;4.03;;
47329;SDS011;33060;50.178;7.570;2022-10-16T05:39:38;4.32;;;4.00;;
47329;SDS011;33060;50.178;7.570;2022-10-16T05:42:05;5.30;;;4.80;;
47329;SDS011;33060;50.178;7.570;2022-10-16T05:44:32;6.22;;;5.63;;
47329;SDS011;33060;50.178;7.570;2022-10-16T05:47:04;4.10;;;3.80;;
47329;SDS011;33060;50.178;7.570;2022-10-16T05:49:30;2.60;;;1.85;;
47329;SDS011;33060;50.178;7.570;2022-10-16T05:51:57;2.65;;;1.90;;
47329;SDS011;33060;50.178;7.570;2022-10-16T05:54:23;2.55;;;1.75;;
47329;SDS011;33060;50.178;7.570;2022-10-16T05:56:50;2.50;;;1.30;;
47329;SDS011;33060;50.178;7.570;2022-10-16T05:59:17;1.33;;;1.10;;
47329;SDS011;33060;50.178;7.570;2022-10-16T06:01:43;2.17;;;1.40;;
47329;SDS011;33060;50.178;7.570;2022-10-16T06:04:10;1.52;;;1.40;;
47329;SDS011;33060;50.178;7.570;2022-10-16T06:06:41;6.90;;;3.67;;
47329;SDS011;33060;50.178;7.570;2022-10-16T06:09:08;4.03;;;2.83;;
47329;SDS011;33060;50.178;7.570;2022-10-16T06:11:35;2.60;;;2.40;;
47329;SDS011;33060;50.178;7.570;2022-10-16T06:14:02;2.72;;;2.53;;
47329;SDS011;33060;50.178;7.570;2022-10-16T06:16:36;2.88;;;2.67;;
47329;SDS011;33060;50.178;7.570;2022-10-16T06:19:03;2.70;;;2.50;;
47329;SDS011;33060;50.178;7.570;2022-10-16T06:21:32;2.65;;;2.45;;
47329;SDS011;33060;50.178;7.570;2022-10-16T06:23:59;2.72;;;2.40;;
47329;SDS011;33060;50.178;7.570;2022-10-16T06:26:26;2.25;;;1.90;;
47329;SDS011;33060;50.178;7.570;2022-10-16T06:28:56;3.85;;;1.90;;
47329;SDS011;33060;50.178;7.570;2022-10-16T06:31:24;3.88;;;2.17;;
47329;SDS011;33060;50.178;7.570;2022-10-16T06:33:57;2.40;;;2.20;;
47329;SDS011;33060;50.178;7.570;2022-10-16T06:36:24;3.00;;;2.70;;
47329;SDS011;33060;50.178;7.570;2022-10-16T06:38:51;3.85;;;2.30;;
47329;SDS011;33060;50.178;7.570;2022-10-16T06:41:19;3.58;;;1.90;;
47329;SDS011;33060;50.178;7.570;2022-10-16T06:43:47;2.72;;;1.95;;
47329;SDS011;33060;50.178;7.570;2022-10-16T06:46:15;2.55;;;1.98;;
47329;SDS011;33060;50.178;7.570;2022-10-16T06:48:43;2.80;;;1.75;;
47329;SDS011;33060;50.178;7.570;2022-10-16T06:51:14;3.10;;;1.67;;
47329;SDS011;33060;50.178;7.570;2022-10-16T06:53:46;2.80;;;1.98;;
47329;SDS011;33060;50.178;7.570;2022-10-16T06:56:28;2.45;;;1.75;;
47329;SDS011;33060;50.178;7.570;2022-10-16T06:58:57;2.03;;;1.48;;
47329;SDS011;33060;50.178;7.570;2022-10-16T07:01:24;3.40;;;1.42;;
47329;SDS011;33060;50.178;7.570;2022-10-16T07:03:51;4.05;;;1.70;;
47329;SDS011;33060;50.178;7.570;2022-10-16T07:06:20;4.35;;;1.80;;
47329;SDS011;33060;50.178;7.570;2022-10-16T07:08:48;3.17;;;1.95;;
47329;SDS011;33060;50.178;7.570;2022-10-16T07:11:16;2.33;;;1.65;;
47329;SDS011;33060;50.178;7.570;2022-10-16T07:13:45;2.03;;;1.77;;
47329;SDS011;33060;50.178;7.570;2022-10-16T07:16:21;4.38;;;1.92;;
47329;SDS011;33060;50.178;7.570;2022-10-16T07:18:49;3.15;;;1.75;;
47329;SDS011;33060;50.178;7.570;2022-10-16T07:21:21;2.30;;;1.55;;
47329;SDS011;33060;50.178;7.570;2022-10-16T07:23:58;2.92;;;1.75;;
47329;SDS011;33060;50.178;7.570;2022-10-16T07:26:28;2.65;;;1.73;;
47329;SDS011;33060;50.178;7.570;2022-10-16T07:28:57;2.50;;;1.80;;
47329;SDS011;33060;50.178;7.570;2022-10-16T07:31:24;3.95;;;2.20;;
47329;SDS011;33060;50.178;7.570;2022-10-16T07:33:51;3.42;;;2.95;;
47329;SDS011;33060;50.178;7.570;2022-10-16T07:36:18;3.50;;;3.10;;
47329;SDS011;33060;50.178;7.570;2022-10-16T07:38:46;4.13;;;3.72;;
47329;SDS011;33060;50.178;7.570;2022-10-16T07:41:14;3.40;;;3.10;;
47329;SDS011;33060;50.178;7.570;2022-10-16T07:43:45;2.75;;;2.30;;
47329;SDS011;33060;50.178;7.570;2022-10-16T07:46:13;2.78;;;1.90;;
47329;SDS011;33060;50.178;7.570;2022-10-16T07:48:40;2.90;;;1.85;;
47329;SDS011;33060;50.178;7.570;2022-10-16T07:51:07;2.95;;;1.88;;
47329;SDS011;33060;50.178;7.570;2022-10-16T07:53:35;1.60;;;1.50;;
47329;SDS011;33060;50.178;7.570;2022-10-16T07:56:03;2.95;;;1.70;;
47329;SDS011;33060;50.178;7.570;2022-10-16T07:58:32;3.63;;;1.75;;
47329;SDS011;33060;50.178;7.570;2022-10-16T08:01:02;3.63;;;2.47;;
47329;SDS011;33060;50.178;7.570;2022-10-16T08:03:31;10.23;;;6.72;;
47329;SDS011;33060;50.178;7.570;2022-10-16T08:05:58;22.00;;;13.82;;
47329;SDS011;33060;50.178;7.570;2022-10-16T08:08:26;7.88;;;6.18;;
47329;SDS011;33060;50.178;7.570;2022-10-16T08:10:53;6.47;;;3.83;;
47329;SDS011;33060;50.178;7.570;2022-10-16T08:13:20;3.88;;;2.08;;
47329;SDS011;33060;50.178;7.570;2022-10-16T08:15:47;3.15;;;1.35;;
47329;SDS011;33060;50.178;7.570;2022-10-16T08:18:14;2.25;;;1.70;;
47329;SDS011;33060;50.178;7.570;2022-10-16T08:20:42;5.80;;;5.38;;
47329;SDS011;33060;50.178;7.570;2022-10-16T08:23:09;3.30;;;3.00;;
47329;SDS011;33060;50.178;7.570;2022-10-16T08:25:38;1.63;;;1.08;;
47329;SDS011;33060;50.178;7.570;2022-10-16T08:28:05;1.42;;;1.15;;
47329;SDS011;33060;50.178;7.570;2022-10-16T08:30:33;1.23;;;0.80;;
47329;SDS011;33060;50.178;7.570;2022-10-16T08:33:00;1.80;;;0.93;;
47329;SDS011;33060;50.178;7.570;2022-10-16T08:35:27;1.33;;;0.80;;
47329;SDS011;33060;50.178;7.570;2022-10-16T08:37:54;4.38;;;1.20;;
47329;SDS011;33060;50.178;7.570;2022-10-16T08:40:25;2.60;;;1.08;;
47329;SDS011;33060;50.178;7.570;2022-10-16T08:43:40;1.17;;;0.90;;
47329;SDS011;33060;50.178;7.570;2022-10-16T08:51:08;1.77;;;0.95;;
47329;SDS011;33060;50.178;7.570;2022-10-16T08:53:44;1.67;;;1.00;;
47329;SDS011;33060;50.178;7.570;2022-10-16T08:56:17;2.28;;;0.90;;
47329;SDS011;33060;50.178;7.570;2022-10-16T08:58:44;1.40;;;0.85;;
47329;SDS011;33060;50.178;7.570;2022-10-16T09:01:19;2.28;;;1.00;;
47329;SDS011;33060;50.178;7.570;2022-10-16T09:08:54;1.20;;;0.90;;
47329;SDS011;33060;50.178;7.570;2022-10-16T09:12:02;2.13;;;1.30;;
47329;SDS011;33060;50.178;7.570;2022-10-16T09:19:42;3.90;;;1.90;;
47329;SDS011;33060;50.178;7.570;2022-10-16T09:22:16;3.97;;;2.55;;
47329;SDS011;33060;50.178;7.570;2022-10-16T09:24:44;3.22;;;2.42;;
47329;SDS011;33060;50.178;7.570;2022-10-16T09:27:12;3.15;;;1.95;;
47329;SDS011;33060;50.178;7.570;2022-10-16T09:29:40;2.15;;;0.90;;
47329;SDS011;33060;50.178;7.570;2022-10-16T09:32:10;1.83;;;1.00;;
47329;SDS011;33060;50.178;7.570;2022-10-16T09:34:53;4.15;;;0.80;;
47329;SDS011;33060;50.178;7.570;2022-10-16T09:37:23;0.95;;;0.50;;
47329;SDS011;33060;50.178;7.570;2022-10-16T09:39:52;1.00;;;0.65;;
47329;SDS011;33060;50.178;7.570;2022-10-16T09:42:20;0.85;;;0.52;;
47329;SDS011;33060;50.178;7.570;2022-10-16T09:44:51;0.73;;;0.40;;
47329;SDS011;33060;50.178;7.570;2022-10-16T09:47:20;0.70;;;0.43;;
47329;SDS011;33060;50.178;7.570;2022-10-16T09:49:50;0.82;;;0.60;;
47329;SDS011;33060;50.178;7.570;2022-10-16T09:52:32;1.38;;;0.80;;
47329;SDS011;33060;50.178;7.570;2022-10-16T09:55:00;0.80;;;0.50;;
47329;SDS011;33060;50.178;7.570;2022-10-16T09:57:29;1.35;;;1.00;;
47329;SDS011;33060;50.178;7.570;2022-10-16T09:59:57;2.28;;;1.30;;
47329;SDS011;33060;50.178;7.570;2022-10-16T10:02:29;1.63;;;0.80;;
47329;SDS011;33060;50.178;7.570;2022-10-16T10:04:58;0.95;;;0.60;;
47329;SDS011;33060;50.178;7.570;2022-10-16T10:07:30;1.63;;;0.60;;
47329;SDS011;33060;50.178;7.570;2022-10-16T10:10:01;0.82;;;0.60;;
47329;SDS011;33060;50.178;7.570;2022-10-16T10:12:30;1.00;;;0.88;;
47329;SDS011;33060;50.178;7.570;2022-10-16T10:15:04;1.02;;;0.77;;
47329;SDS011;33060;50.178;7.570;2022-10-16T10:17:33;1.48;;;0.60;;
47329;SDS011;33060;50.178;7.570;2022-10-16T10:20:13;1.73;;;0.63;;
47329;SDS011;33060;50.178;7.570;2022-10-16T10:22:47;0.95;;;0.60;;
47329;SDS011;33060;50.178;7.570;2022-10-16T10:33:30;0.77;;;0.50;;
47329;SDS011;33060;50.178;7.570;2022-10-16T10:36:08;0.85;;;0.65;;
47329;SDS011;33060;50.178;7.570;2022-10-16T10:39:27;1.02;;;0.60;;
47329;SDS011;33060;50.178;7.570;2022-10-16T10:44:51;1.88;;;0.75;;
47329;SDS011;33060;50.178;7.570;2022-10-16T10:53:21;1.00;;;0.73;;
47329;SDS011;33060;50.178;7.570;2022-10-16T10:56:02;1.02;;;0.80;;
47329;SDS011;33060;50.178;7.570;2022-10-16T10:58:50;0.95;;;0.80;;
47329;SDS011;33060;50.178;7.570;2022-10-16T11:01:27;0.90;;;0.60;;
47329;SDS011;33060;50.178;7.570;2022-10-16T11:06:51;0.98;;;0.50;;
47329;SDS011;33060;50.178;7.570;2022-10-16T11:09:44;1.60;;;0.73;;
47329;SDS011;33060;50.178;7.570;2022-10-16T11:12:16;1.48;;;0.60;;
47329;SDS011;33060;50.178;7.570;2022-10-16T11:17:44;1.67;;;1.40;;
47329;SDS011;33060;50.178;7.570;2022-10-16T11:20:40;1.95;;;1.30;;
47329;SDS011;33060;50.178;7.570;2022-10-16T11:23:14;2.58;;;1.92;;
47329;SDS011;33060;50.178;7.570;2022-10-16T11:25:48;2.25;;;1.80;;
47329;SDS011;33060;50.178;7.570;2022-10-16T11:34:06;2.80;;;1.80;;
47329;SDS011;33060;50.178;7.570;2022-10-16T11:39:45;1.52;;;0.63;;
47329;SDS011;33060;50.178;7.570;2022-10-16T11:42:16;1.08;;;0.70;;
47329;SDS011;33060;50.178;7.570;2022-10-16T11:45:00;2.60;;;1.80;;
47329;SDS011;33060;50.178;7.570;2022-10-16T11:47:42;1.30;;;0.90;;
47329;SDS011;33060;50.178;7.570;2022-10-16T11:56:04;0.90;;;0.80;;
47329;SDS011;33060;50.178;7.570;2022-10-16T12:01:18;1.25;;;0.70;;
47329;SDS011;33060;50.178;7.570;2022-10-16T12:04:13;1.15;;;0.80;;
47329;SDS011;33060;50.178;7.570;2022-10-16T12:06:48;0.95;;;0.70;;
47329;SDS011;33060;50.178;7.570;2022-10-16T12:09:22;0.55;;;0.50;;
47329;SDS011;33060;50.178;7.570;2022-10-16T12:11:52;1.30;;;0.88;;
47329;SDS011;33060;50.178;7.570;2022-10-16T12:14:21;1.25;;;0.90;;
47329;SDS011;33060;50.178;7.570;2022-10-16T12:17:03;1.50;;;1.40;;
47329;SDS011;33060;50.178;7.570;2022-10-16T12:19:59;2.22;;;1.98;;
47329;SDS011;33060;50.178;7.570;2022-10-16T12:22:52;1.63;;;0.68;;
47329;SDS011;33060;50.178;7.570;2022-10-16T12:28:02;2.65;;;1.15;;
47329;SDS011;33060;50.178;7.570;2022-10-16T12:30:39;1.23;;;1.02;;
47329;SDS011;33060;50.178;7.570;2022-10-16T12:33:24;1.52;;;0.88;;
47329;SDS011;33060;50.178;7.570;2022-10-16T12:35:59;2.35;;;1.10;;
47329;SDS011;33060;50.178;7.570;2022-10-16T12:41:11;1.35;;;1.00;;
47329;SDS011;33060;50.178;7.570;2022-10-16T12:43:44;1.75;;;1.30;;
47329;SDS011;33060;50.178;7.570;2022-10-16T12:48:40;1.60;;;1.40;;
47329;SDS011;33060;50.178;7.570;2022-10-16T12:56:47;1.67;;;0.80;;
47329;SDS011;33060;50.178;7.570;2022-10-16T12:59:48;1.33;;;1.00;;
47329;SDS011;33060;50.178;7.570;2022-10-16T13:02:39;1.23;;;0.73;;
47329;SDS011;33060;50.178;7.570;2022-10-16T13:11:05;1.52;;;1.10;;
47329;SDS011;33060;50.178;7.570;2022-10-16T13:16:44;1.10;;;1.00;;
47329;SDS011;33060;50.178;7.570;2022-10-16T13:19:41;1.60;;;1.00;;
47329;SDS011;33060;50.178;7.570;2022-10-16T13:30:24;1.52;;;1.00;;
47329;SDS011;33060;50.178;7.570;2022-10-16T13:33:16;0.98;;;0.77;;
47329;SDS011;33060;50.178;7.570;2022-10-16T13:35:49;1.50;;;1.40;;
47329;SDS011;33060;50.178;7.570;2022-10-16T13:38:22;1.58;;;0.90;;
47329;SDS011;33060;50.178;7.570;2022-10-16T13:46:12;1.83;;;1.10;;
47329;SDS011;33060;50.178;7.570;2022-10-16T13:48:44;0.90;;;0.70;;
47329;SDS011;33060;50.178;7.570;2022-10-16T13:51:21;3.35;;;0.80;;
47329;SDS011;33060;50.178;7.570;2022-10-16T13:53:54;2.25;;;0.70;;
47329;SDS011;33060;50.178;7.570;2022-10-16T13:56:27;0.98;;;0.70;;
47329;SDS011;33060;50.178;7.570;2022-10-16T13:59:37;0.70;;;0.60;;
47329;SDS011;33060;50.178;7.570;2022-10-16T14:02:08;2.45;;;0.70;;
47329;SDS011;33060;50.178;7.570;2022-10-16T14:05:02;1.77;;;0.60;;
47329;SDS011;33060;50.178;7.570;2022-10-16T14:07:31;0.75;;;0.60;;
47329;SDS011;33060;50.178;7.570;2022-10-16T14:10:04;1.55;;;0.80;;
47329;SDS011;33060;50.178;7.570;2022-10-16T14:12:33;1.60;;;0.80;;
47329;SDS011;33060;50.178;7.570;2022-10-16T14:15:00;0.68;;;0.68;;
47329;SDS011;33060;50.178;7.570;2022-10-16T14:17:31;1.52;;;0.80;;
47329;SDS011;33060;50.178;7.570;2022-10-16T14:20:02;0.70;;;0.70;;
47329;SDS011;33060;50.178;7.570;2022-10-16T14:22:33;1.67;;;0.90;;
47329;SDS011;33060;50.178;7.570;2022-10-16T14:25:16;1.60;;;0.95;;
47329;SDS011;33060;50.178;7.570;2022-10-16T14:28:13;2.75;;;1.15;;
47329;SDS011;33060;50.178;7.570;2022-10-16T14:38:31;1.10;;;0.85;;
47329;SDS011;33060;50.178;7.570;2022-10-16T14:40:59;0.95;;;0.70;;
47329;SDS011;33060;50.178;7.570;2022-10-16T14:43:30;2.72;;;0.90;;
47329;SDS011;33060;50.178;7.570;2022-10-16T14:46:06;2.20;;;0.70;;
47329;SDS011;33060;50.178;7.570;2022-10-16T14:48:42;3.25;;;0.80;;
47329;SDS011;33060;50.178;7.570;2022-10-16T14:51:15;4.68;;;0.80;;
47329;SDS011;33060;50.178;7.570;2022-10-16T14:53:43;1.58;;;0.80;;
47329;SDS011;33060;50.178;7.570;2022-10-16T14:56:14;1.63;;;0.90;;
47329;SDS011;33060;50.178;7.570;2022-10-16T14:58:44;3.58;;;0.80;;
47329;SDS011;33060;50.178;7.570;2022-10-16T15:01:11;1.02;;;0.82;;
47329;SDS011;33060;50.178;7.570;2022-10-16T15:03:38;1.88;;;1.02;;
47329;SDS011;33060;50.178;7.570;2022-10-16T15:06:11;1.40;;;0.95;;
47329;SDS011;33060;50.178;7.570;2022-10-16T15:08:39;1.90;;;1.70;;
47329;SDS011;33060;50.178;7.570;2022-10-16T15:11:12;3.67;;;3.35;;
47329;SDS011;33060;50.178;7.570;2022-10-16T15:13:40;2.67;;;1.60;;
47329;SDS011;33060;50.178;7.570;2022-10-16T15:16:10;2.03;;;1.23;;
47329;SDS011;33060;50.178;7.570;2022-10-16T15:18:37;2.72;;;1.90;;
47329;SDS011;33060;50.178;7.570;2022-10-16T15:21:04;3.40;;;2.60;;
47329;SDS011;33060;50.178;7.570;2022-10-16T15:23:31;5.03;;;2.72;;
47329;SDS011;33060;50.178;7.570;2022-10-16T15:25:57;1.95;;;1.80;;
47329;SDS011;33060;50.178;7.570;2022-10-16T15:28:24;2.35;;;2.15;;
47329;SDS011;33060;50.178;7.570;2022-10-16T15:30:52;2.83;;;2.20;;
47329;SDS011;33060;50.178;7.570;2022-10-16T15:33:21;2.47;;;2.13;;
47329;SDS011;33060;50.178;7.570;2022-10-16T15:36:05;2.90;;;2.60;;
47329;SDS011;33060;50.178;7.570;2022-10-16T15:38:32;3.10;;;2.80;;
47329;SDS011;33060;50.178;7.570;2022-10-16T15:40:58;3.17;;;2.88;;
47329;SDS011;33060;50.178;7.570;2022-10-16T15:43:25;3.88;;;3.47;;
47329;SDS011;33060;50.178;7.570;2022-10-16T15:46:06;3.75;;;3.22;;
47329;SDS011;33060;50.178;7.570;2022-10-16T15:48:36;3.80;;;3.40;;
47329;SDS011;33060;50.178;7.570;2022-10-16T15:51:06;3.40;;;3.10;;
47329;SDS011;33060;50.178;7.570;2022-10-16T15:53:34;4.80;;;3.40;;
47329;SDS011;33060;50.178;7.570;2022-10-16T15:56:02;3.50;;;3.20;;
47329;SDS011;33060;50.178;7.570;2022-10-16T15:58:29;7.10;;;5.50;;
47329;SDS011;33060;50.178;7.570;2022-10-16T16:00:56;4.60;;;4.18;;
47329;SDS011;33060;50.178;7.570;2022-10-16T16:03:24;5.60;;;4.90;;
47329;SDS011;33060;50.178;7.570;2022-10-16T16:05:50;6.20;;;5.15;;
47329;SDS011;33060;50.178;7.570;2022-10-16T16:08:17;5.57;;;5.05;;
47329;SDS011;33060;50.178;7.570;2022-10-16T16:10:44;5.30;;;4.80;;
47329;SDS011;33060;50.178;7.570;2022-10-16T16:13:10;7.72;;;4.65;;
47329;SDS011;33060;50.178;7.570;2022-10-16T16:15:40;5.13;;;4.55;;
47329;SDS011;33060;50.178;7.570;2022-10-16T16:18:06;4.78;;;4.35;;
47329;SDS011;33060;50.178;7.570;2022-10-16T16:20:36;5.65;;;4.00;;
47329;SDS011;33060;50.178;7.570;2022-10-16T16:23:02;4.15;;;3.75;;
47329;SDS011;33060;50.178;7.570;2022-10-16T16:25:29;6.70;;;4.20;;
47329;SDS011;33060;50.178;7.570;2022-10-16T16:27:56;6.15;;;3.80;;
47329;SDS011;33060;50.178;7.570;2022-10-16T16:30:23;4.72;;;4.32;;
47329;SDS011;33060;50.178;7.570;2022-10-16T16:32:53;4.75;;;4.10;;
47329;SDS011;33060;50.178;7.570;2022-10-16T16:35:20;8.40;;;4.30;;
47329;SDS011;33060;50.178;7.570;2022-10-16T16:37:47;4.65;;;4.25;;
47329;SDS011;33060;50.178;7.570;2022-10-16T16:40:14;5.50;;;4.18;;
47329;SDS011;33060;50.178;7.570;2022-10-16T16:42:40;4.53;;;4.03;;
47329;SDS011;33060;50.178;7.570;2022-10-16T16:45:07;4.60;;;4.20;;
47329;SDS011;33060;50.178;7.570;2022-10-16T16:47:34;5.40;;;4.45;;
47329;SDS011;33060;50.178;7.570;2022-10-16T16:50:01;5.00;;;4.20;;
47329;SDS011;33060;50.178;7.570;2022-10-16T16:52:31;9.57;;;5.00;;
47329;SDS011;33060;50.178;7.570;2022-10-16T16:54:57;5.65;;;4.78;;
47329;SDS011;33060;50.178;7.570;2022-10-16T16:57:24;6.05;;;4.90;;
47329;SDS011;33060;50.178;7.570;2022-10-16T16:59:51;5.28;;;4.78;;
47329;SDS011;33060;50.178;7.570;2022-10-16T17:02:18;6.28;;;4.60;;
47329;SDS011;33060;50.178;7.570;2022-10-16T17:04:45;7.78;;;4.93;;
47329;SDS011;33060;50.178;7.570;2022-10-16T17:07:11;5.65;;;4.18;;
47329;SDS011;33060;50.178;7.570;2022-10-16T17:09:38;5.13;;;4.60;;